Aérodrome :
LOGIN :

S'inscrire | Disclaimer

   EN    FR    IT 

 










Légende :    VFR   VFR Marginal   IFR   IFR Intensif   IFR Très Intensif
Visi : 
Plafond : 
>= 8 km
>= 3000ft
5 à 8 km
1000 à 3000 ft
1500m à 5 km
500 à 1000 ft
800 à 1500m
200 à 500 ft
< 800m
< 200 ft
Symboles :   Orages  Brouillard  Fortes neiges  Fortes précipitations  Vent > 20 kt
SIGMETs :   Divers  Orages  Givrage  Turbulence  Onde Orograph.  Cendres Volcan.






- Altitude de l'aérodrome : 526 ft
- Code IATA : LTN


EGGW - London Luton

DERNIER METAR :
  • 270520Z AUTO VRB01KT 9999 OVC046 13/09 Q1036

METARs EXPIRÉS :
  • 270450Z AUTO 04002KT 9999 BKN048 12/08 Q1036
  • 270420Z AUTO 05002KT 9999 BKN049 11/08 Q1036
  • 270350Z AUTO 03003KT 9999 NCD 11/07 Q1036
  • 270320Z AUTO VRB01KT 9999 BKN048 12/07 Q1036
  • 270250Z AUTO 13002KT 9999 OVC048 12/08 Q1036

TAF TAF EGGW
Valide du 27 à 06h jusqu'au 28 à 06h UTC


270453Z 2706/2806 03005KT 9999 FEW045
ATIS : +44 1582 395 204



MET'MAP, la Météo Aéronautique d'un coup d'oeil ! - Copyright ORBIFLY Décembre 2007 - Disclaimer

ORBIFLY MET'MAP TEAM :

Programmation & Développement : Alexandra Zaïnal
Sur une idée originale de : Baudouin d'Aumeries
Assistance à la programmation : Marc-Olivier Méhu
Soutien technique & logistique : Manuel Goepfert

Contact : metmap@orbifly.com




SOURCES & CREDITS :

   NOAA